Time;durP1;ratioP1;P1;durP2;ratioP2;P2;SDS_P1;SDS_P2;PMS_P1;PMS_P2;Temp;Humidity;BMP_temperature;BMP_pressure;BME280_temperature;BME280_humidity;BME280_pressure;Samples;Min_cycle;Max_cycle;Signal;HPM_P1;HPM_P2
2024/01/08 00:01:59;;;;;;;7.70;7.50;;;20.00;43.00;;;;;;5021118;28;20953;-67
2024/01/08 00:04:27;;;;;;;7.17;6.97;;;20.00;42.90;;;;;;5026475;28;20838;-68
2024/01/08 00:06:54;;;;;;;7.67;7.47;;;20.00;43.00;;;;;;5025264;28;20445;-68
2024/01/08 00:09:21;;;;;;;8.00;7.70;;;20.00;42.90;;;;;;5023019;28;20476;-68
2024/01/08 00:11:48;;;;;;;7.43;7.27;;;20.00;42.90;;;;;;5023411;28;20484;-68
2024/01/08 00:14:15;;;;;;;7.63;7.33;;;19.90;42.80;;;;;;5026543;28;20956;-68
2024/01/08 00:16:42;;;;;;;7.40;7.20;;;19.90;42.90;;;;;;5026452;28;20445;-68
2024/01/08 00:19:08;;;;;;;7.30;7.13;;;19.90;42.90;;;;;;5023023;28;20500;-67
2024/01/08 00:21:37;;;;;;;7.83;7.57;;;19.90;42.80;;;;;;5022769;28;20877;-68
2024/01/08 00:24:04;;;;;;;7.00;6.90;;;19.90;42.90;;;;;;5025417;28;20474;-68
2024/01/08 00:26:31;;;;;;;7.70;7.50;;;19.90;42.90;;;;;;5026119;28;20469;-68
2024/01/08 00:28:59;;;;;;;7.97;7.67;;;19.90;42.90;;;;;;5025001;28;20468;-67
2024/01/08 00:31:26;;;;;;;7.77;7.57;;;19.90;42.90;;;;;;5026081;28;20467;-68
2024/01/08 00:33:53;;;;;;;7.00;6.90;;;19.90;42.90;;;;;;5025087;28;20477;-68
2024/01/08 00:36:20;;;;;;;8.20;8.00;;;19.80;42.80;;;;;;5022720;28;20469;-68
2024/01/08 00:38:48;;;;;;;8.47;8.23;;;19.80;42.90;;;;;;5022408;28;20521;-68
2024/01/08 00:41:15;;;;;;;7.30;7.10;;;19.80;43.40;;;;;;5014580;28;20510;-68
2024/01/08 00:43:42;;;;;;;7.10;6.90;;;19.80;42.90;;;;;;5022478;28;20593;-68
2024/01/08 00:46:08;;;;;;;7.60;7.30;;;19.80;42.90;;;;;;5025229;28;20468;-68
2024/01/08 00:48:35;;;;;;;7.43;7.30;;;19.80;43.00;;;;;;5025779;28;20492;-68
2024/01/08 00:51:02;;;;;;;7.40;7.20;;;19.80;43.00;;;;;;5023564;28;20469;-68
2024/01/08 00:53:29;;;;;;;7.10;6.90;;;19.80;43.00;;;;;;5022290;28;20473;-68
2024/01/08 00:55:57;;;;;;;7.30;7.10;;;19.70;42.90;;;;;;5023221;28;20478;-67
2024/01/08 00:58:24;;;;;;;7.27;7.10;;;19.70;42.90;;;;;;5025740;28;20484;-68
2024/01/08 01:00:51;;;;;;;7.23;7.10;;;19.70;42.90;;;;;;5024782;28;20512;-68
2024/01/08 01:03:18;;;;;;;7.60;7.30;;;19.70;42.90;;;;;;5022192;28;20885;-68
2024/01/08 01:05:45;;;;;;;7.83;7.53;;;19.70;42.90;;;;;;5022084;28;20444;-67
2024/01/08 01:08:12;;;;;;;7.63;7.43;;;19.70;42.80;;;;;;5024964;28;20496;-68
2024/01/08 01:10:38;;;;;;;7.70;7.27;;;19.80;43.00;;;;;;5025221;28;20472;-68
2024/01/08 01:13:07;;;;;;;7.70;7.50;;;19.70;43.00;;;;;;5023283;28;20975;-67
2024/01/08 01:15:34;;;;;;;7.67;7.47;;;19.70;42.90;;;;;;5020703;28;20868;-67
2024/01/08 01:18:01;;;;;;;7.90;7.60;;;19.70;42.90;;;;;;5023144;28;20502;-68
2024/01/08 01:20:27;;;;;;;7.53;7.33;;;19.70;43.00;;;;;;5025170;28;20479;-67
2024/01/08 01:22:54;;;;;;;7.70;7.47;;;19.70;43.00;;;;;;5024238;28;20449;-68
2024/01/08 01:25:21;;;;;;;8.00;7.80;;;19.70;43.00;;;;;;5021636;28;20485;-67
2024/01/08 01:27:48;;;;;;;7.37;7.23;;;19.70;43.00;;;;;;5028278;28;20469;-67
2024/01/08 01:30:16;;;;;;;6.97;6.87;;;19.60;43.00;;;;;;5013633;28;20466;-67
2024/01/08 01:32:43;;;;;;;7.70;7.50;;;19.60;43.00;;;;;;5021575;28;20480;-67
2024/01/08 01:35:10;;;;;;;7.50;7.30;;;19.70;43.10;;;;;;5024144;28;20468;-67
2024/01/08 01:37:38;;;;;;;7.67;7.47;;;19.60;43.00;;;;;;5024790;28;20492;-68
2024/01/08 01:40:06;;;;;;;7.47;7.37;;;19.60;43.00;;;;;;5022589;28;20925;-67
2024/01/08 01:42:32;;;;;;;7.30;7.10;;;19.60;43.00;;;;;;5021346;28;20481;-68
2024/01/08 01:44:59;;;;;;;7.40;7.17;;;19.60;43.00;;;;;;5022545;28;20478;-67
2024/01/08 01:47:28;;;;;;;7.40;7.30;;;19.60;43.00;;;;;;5024548;28;20503;-68
2024/01/08 01:49:55;;;;;;;7.67;7.50;;;19.60;43.00;;;;;;5023923;28;20465;-68
2024/01/08 01:52:23;;;;;;;8.13;7.93;;;19.60;43.00;;;;;;5021178;28;20470;-67
2024/01/08 01:54:51;;;;;;;7.60;7.43;;;19.60;43.00;;;;;;5021063;28;20872;-68
2024/01/08 01:57:19;;;;;;;7.90;7.70;;;19.60;43.00;;;;;;5013278;28;20497;-68
2024/01/08 01:59:47;;;;;;;7.23;7.13;;;19.60;43.10;;;;;;5021146;28;20482;-68
2024/01/08 02:02:14;;;;;;;7.80;7.60;;;19.60;43.00;;;;;;5023951;28;20483;-67
2024/01/08 02:04:44;;;;;;;7.67;7.47;;;19.60;43.00;;;;;;5024355;28;20473;-67
2024/01/08 02:07:11;;;;;;;8.10;7.90;;;19.60;43.00;;;;;;5021177;28;20980;-68
2024/01/08 02:09:38;;;;;;;7.80;7.60;;;19.60;43.00;;;;;;5020943;28;20442;-67
2024/01/08 02:12:07;;;;;;;7.90;7.70;;;19.60;43.00;;;;;;5022558;28;20473;-67
2024/01/08 02:14:34;;;;;;;8.10;7.90;;;19.60;43.00;;;;;;5024160;28;20468;-67
2024/01/08 02:17:00;;;;;;;8.00;7.80;;;19.50;42.90;;;;;;5022656;28;20465;-67
2024/01/08 02:19:27;;;;;;;7.40;7.30;;;19.50;43.00;;;;;;5020781;28;20480;-67
2024/01/08 02:21:55;;;;;;;7.60;7.40;;;19.50;43.00;;;;;;5020816;28;20522;-68
2024/01/08 02:24:24;;;;;;;7.50;7.40;;;19.50;43.00;;;;;;5023968;28;20449;-68
2024/01/08 02:26:51;;;;;;;7.80;7.60;;;19.50;42.90;;;;;;5022171;28;20476;-67
2024/01/08 02:29:19;;;;;;;7.70;7.40;;;19.50;42.90;;;;;;5012610;28;20501;-68
2024/01/08 02:31:46;;;;;;;7.70;7.60;;;19.50;42.90;;;;;;5020441;28;20450;-68
2024/01/08 02:34:13;;;;;;;7.90;7.70;;;19.50;42.90;;;;;;5023278;28;20457;-68
2024/01/08 02:36:40;;;;;;;7.70;7.57;;;19.50;42.80;;;;;;5023785;28;20960;-67
2024/01/08 02:39:07;;;;;;;7.67;7.57;;;19.50;42.80;;;;;;5021741;28;20507;-68
2024/01/08 02:41:35;;;;;;;8.27;7.97;;;19.50;42.80;;;;;;5020110;28;20512;-68
2024/01/08 02:44:02;;;;;;;7.80;7.60;;;19.50;42.80;;;;;;5021382;28;20858;-68
2024/01/08 02:46:29;;;;;;;7.90;7.70;;;19.50;42.90;;;;;;5023761;28;20499;-68
2024/01/08 02:48:56;;;;;;;7.80;7.60;;;19.50;42.80;;;;;;5022926;28;20848;-67
2024/01/08 02:51:22;;;;;;;7.97;7.80;;;19.40;42.70;;;;;;5020097;28;20446;-68
2024/01/08 02:53:49;;;;;;;7.47;7.27;;;19.50;42.80;;;;;;5020085;28;20442;-67
2024/01/08 02:56:19;;;;;;;7.83;7.63;;;19.40;42.70;;;;;;5023427;28;20469;-68
2024/01/08 02:58:49;;;;;;;7.63;7.43;;;19.50;42.80;;;;;;5023411;28;20991;-68
2024/01/08 03:01:16;;;;;;;8.67;8.47;;;19.40;42.70;;;;;;5020132;28;20941;-68
2024/01/08 03:03:43;;;;;;;9.83;9.53;;;19.50;42.80;;;;;;5020072;28;20817;-68
2024/01/08 03:06:10;;;;;;;7.77;7.57;;;19.40;42.70;;;;;;5022273;28;20481;-68
2024/01/08 03:08:37;;;;;;;7.43;7.23;;;19.40;42.70;;;;;;5023277;28;20489;-68
2024/01/08 03:11:04;;;;;;;7.50;7.40;;;19.40;42.70;;;;;;5021696;28;20476;-67
2024/01/08 03:13:31;;;;;;;8.30;8.00;;;19.40;42.70;;;;;;5020004;28;20477;-68
2024/01/08 03:15:59;;;;;;;8.53;8.33;;;19.40;42.70;;;;;;5020312;28;20488;-68
2024/01/08 03:18:26;;;;;;;8.23;8.03;;;19.40;42.70;;;;;;5023160;28;20496;-68
2024/01/08 03:20:53;;;;;;;8.00;7.80;;;19.30;42.60;;;;;;5023115;28;20515;-67
2024/01/08 03:23:19;;;;;;;8.10;7.90;;;19.30;42.70;;;;;;5011827;28;20507;-68
2024/01/08 03:25:46;;;;;;;7.93;7.73;;;19.40;42.80;;;;;;5018191;28;20473;-67
2024/01/08 03:28:13;;;;;;;7.80;7.60;;;19.30;42.80;;;;;;5025860;28;20623;-68
2024/01/08 03:30:40;;;;;;;8.30;8.07;;;19.30;42.70;;;;;;5019705;28;20489;-67
2024/01/08 03:33:09;;;;;;;8.07;7.87;;;19.30;42.70;;;;;;5021345;28;20454;-67
2024/01/08 03:35:36;;;;;;;8.17;7.90;;;19.30;42.70;;;;;;5023222;28;20441;-67
2024/01/08 03:38:03;;;;;;;8.20;8.00;;;19.30;42.70;;;;;;5023153;28;20504;-67
2024/01/08 03:40:29;;;;;;;7.30;7.20;;;19.30;42.70;;;;;;5023534;28;20520;-68
2024/01/08 03:42:56;;;;;;;8.10;7.90;;;19.40;42.70;;;;;;5023702;28;20473;-68
2024/01/08 03:45:23;;;;;;;7.90;7.70;;;19.30;42.70;;;;;;5026923;28;20551;-67
2024/01/08 03:47:50;;;;;;;8.30;8.10;;;19.30;42.70;;;;;;5026803;28;20496;-68
2024/01/08 03:50:18;;;;;;;8.20;8.00;;;19.30;42.60;;;;;;5023691;28;20476;-67
2024/01/08 03:52:45;;;;;;;8.00;7.80;;;19.30;42.60;;;;;;5023437;28;20998;-68
2024/01/08 03:55:12;;;;;;;8.00;7.80;;;19.30;42.60;;;;;;5025662;28;20953;-67
2024/01/08 03:57:39;;;;;;;8.37;8.17;;;19.30;42.60;;;;;;5026673;28;20519;-66
2024/01/08 04:00:07;;;;;;;8.30;8.07;;;19.30;42.60;;;;;;5025184;28;20472;-67
2024/01/08 04:02:34;;;;;;;8.23;8.07;;;19.30;42.60;;;;;;5023335;28;20473;-68
2024/01/08 04:05:03;;;;;;;8.13;7.93;;;19.30;42.60;;;;;;5023950;28;20536;-68
2024/01/08 04:07:31;;;;;;;8.63;8.43;;;19.30;42.60;;;;;;5026297;28;20500;-67
2024/01/08 04:09:58;;;;;;;7.90;7.70;;;19.30;42.60;;;;;;5026131;28;20476;-67
2024/01/08 04:12:24;;;;;;;8.70;8.40;;;19.30;42.70;;;;;;5023104;28;20473;-68
2024/01/08 04:14:51;;;;;;;8.13;7.93;;;19.30;42.70;;;;;;5023045;28;20477;-68
2024/01/08 04:17:18;;;;;;;7.73;7.53;;;19.30;42.70;;;;;;5025639;28;20954;-67
2024/01/08 04:19:45;;;;;;;7.87;7.67;;;19.30;42.70;;;;;;5026369;28;20956;-67
2024/01/08 04:22:12;;;;;;;8.37;8.17;;;19.30;42.70;;;;;;5023880;28;20898;-68
2024/01/08 04:24:40;;;;;;;8.50;8.30;;;19.30;42.70;;;;;;5022909;28;20844;-67
2024/01/08 04:27:07;;;;;;;8.30;8.10;;;19.30;42.80;;;;;;5020352;28;20586;-68
2024/01/08 04:29:34;;;;;;;8.33;8.13;;;19.30;42.80;;;;;;5022812;28;20516;-67
2024/01/08 04:32:01;;;;;;;7.80;7.60;;;19.30;42.80;;;;;;5023158;28;20434;-68
2024/01/08 04:34:28;;;;;;;7.93;7.73;;;19.30;42.80;;;;;;5026080;28;20793;-68
2024/01/08 04:36:55;;;;;;;8.30;8.10;;;19.30;42.80;;;;;;5025874;28;20477;-67
2024/01/08 04:39:22;;;;;;;9.07;8.77;;;19.30;42.80;;;;;;5014525;28;20477;-67
2024/01/08 04:41:50;;;;;;;8.80;8.60;;;19.30;42.80;;;;;;5022453;28;20509;-68
2024/01/08 04:44:17;;;;;;;8.00;7.80;;;19.30;42.80;;;;;;5025064;28;20476;-67
2024/01/08 04:46:44;;;;;;;8.47;8.17;;;19.30;42.80;;;;;;5025869;28;20888;-67
2024/01/08 04:49:11;;;;;;;8.40;8.20;;;19.30;42.90;;;;;;5023407;28;20467;-67
2024/01/08 04:51:38;;;;;;;9.13;8.83;;;19.30;42.90;;;;;;5022189;28;20470;-67
2024/01/08 04:54:06;;;;;;;8.07;7.87;;;19.30;43.50;;;;;;5023126;28;20480;-68
2024/01/08 04:56:33;;;;;;;8.60;8.40;;;19.30;43.00;;;;;;5025702;28;20544;-67
2024/01/08 04:59:01;;;;;;;8.60;8.40;;;19.30;43.00;;;;;;5025126;28;20461;-67
2024/01/08 05:01:28;;;;;;;8.17;8.00;;;19.20;42.90;;;;;;5021908;28;20508;-67
2024/01/08 05:03:55;;;;;;;8.27;8.07;;;19.30;43.10;;;;;;5022275;28;20473;-67
2024/01/08 05:06:22;;;;;;;8.30;8.00;;;19.30;43.10;;;;;;5025174;28;20865;-67
2024/01/08 05:08:48;;;;;;;8.17;7.97;;;19.30;43.10;;;;;;5025399;28;20515;-67
2024/01/08 05:11:15;;;;;;;8.80;8.60;;;19.30;43.10;;;;;;5022971;28;20468;-68
2024/01/08 05:13:42;;;;;;;8.87;8.67;;;19.30;43.10;;;;;;5021894;28;20474;-67
2024/01/08 05:16:10;;;;;;;8.73;8.53;;;19.30;43.10;;;;;;5023315;28;20477;-67
2024/01/08 05:18:37;;;;;;;8.90;8.60;;;19.30;43.10;;;;;;5025105;28;20898;-67
2024/01/08 05:21:05;;;;;;;9.00;8.80;;;19.30;43.00;;;;;;5024043;28;20513;-67
2024/01/08 05:23:33;;;;;;;9.03;8.73;;;19.30;43.00;;;;;;5021801;28;20543;-67
2024/01/08 05:26:00;;;;;;;9.13;8.83;;;19.30;43.00;;;;;;5021796;28;20449;-68
2024/01/08 05:28:27;;;;;;;9.00;8.80;;;19.30;43.00;;;;;;5026853;28;20466;-67
2024/01/08 05:30:54;;;;;;;9.70;9.10;;;19.30;43.00;;;;;;5021552;28;20446;-67
2024/01/08 05:33:23;;;;;;;9.50;9.20;;;19.30;43.10;;;;;;5024443;28;20508;-67
2024/01/08 05:35:50;;;;;;;9.90;9.33;;;19.30;43.60;;;;;;5024951;28;20481;-67
2024/01/08 05:38:17;;;;;;;10.50;9.80;;;19.30;44.30;;;;;;5022440;28;20887;-67
2024/01/08 05:40:44;;;;;;;13.20;10.90;;;19.40;45.30;;;;;;5021314;28;21065;-67
2024/01/08 05:43:11;;;;;;;13.00;11.70;;;19.40;46.40;;;;;;5022862;28;20500;-67
2024/01/08 05:45:37;;;;;;;19.57;12.37;;;19.40;47.30;;;;;;5024904;28;20503;-67
2024/01/08 05:48:05;;;;;;;15.70;12.73;;;19.40;48.80;;;;;;5023929;28;20497;-66
2024/01/08 05:50:34;;;;;;;20.80;13.30;;;19.40;49.40;;;;;;5040276;22;20501;-71
2024/01/08 05:53:01;;;;;;;15.50;11.70;;;19.40;50.20;;;;;;5040844;28;20440;-70
2024/01/08 05:55:28;;;;;;;14.00;12.00;;;19.50;49.60;;;;;;5044469;28;20448;-71
2024/01/08 05:57:55;;;;;;;13.47;12.30;;;19.60;49.10;;;;;;5044283;28;20474;-72
2024/01/08 06:00:22;;;;;;;13.37;12.47;;;19.60;48.90;;;;;;5040179;28;20500;-71
2024/01/08 06:02:49;;;;;;;13.87;12.47;;;19.60;48.70;;;;;;5040514;28;20519;-71
2024/01/08 06:05:16;;;;;;;12.90;11.93;;;19.70;48.50;;;;;;5042670;28;20473;-72
2024/01/08 06:07:47;;;;;;;14.23;12.90;;;19.70;48.30;;;;;;5043998;28;21008;-71
2024/01/08 06:10:14;;;;;;;14.33;12.30;;;19.70;48.10;;;;;;5041978;28;20475;-71
2024/01/08 06:12:41;;;;;;;12.53;11.57;;;19.70;47.90;;;;;;5040562;28;20957;-72
2024/01/08 06:15:09;;;;;;;16.43;12.80;;;19.70;47.70;;;;;;5041411;28;20476;-71
2024/01/08 06:17:35;;;;;;;13.57;12.20;;;19.70;47.50;;;;;;5043847;28;20472;-71
2024/01/08 06:20:02;;;;;;;12.73;11.80;;;19.70;47.30;;;;;;5043294;28;21001;-71
2024/01/08 06:22:29;;;;;;;12.80;11.50;;;19.70;47.20;;;;;;5040372;28;20508;-71
2024/01/08 06:24:57;;;;;;;12.33;11.33;;;19.70;47.00;;;;;;5040341;28;20481;-71
2024/01/08 06:27:24;;;;;;;11.80;10.90;;;19.80;47.00;;;;;;5043313;28;20474;-71
2024/01/08 06:29:52;;;;;;;12.00;11.20;;;19.80;46.90;;;;;;5043594;28;20492;-71
2024/01/08 06:32:19;;;;;;;12.37;11.57;;;19.80;46.80;;;;;;5040967;28;20475;-71
2024/01/08 06:34:46;;;;;;;11.90;11.10;;;19.80;46.70;;;;;;5039996;28;20526;-71
2024/01/08 06:37:13;;;;;;;12.27;11.13;;;19.80;46.60;;;;;;5041571;28;20484;-71
2024/01/08 06:39:40;;;;;;;12.43;11.20;;;19.80;46.40;;;;;;5043410;28;20484;-71
2024/01/08 06:42:08;;;;;;;12.50;11.60;;;19.80;46.40;;;;;;5042387;28;20504;-71
2024/01/08 06:44:35;;;;;;;13.10;12.10;;;19.80;46.30;;;;;;5039898;28;20485;-71
2024/01/08 06:47:02;;;;;;;12.87;12.00;;;19.80;46.20;;;;;;5039831;28;20484;-70
2024/01/08 06:49:29;;;;;;;13.67;12.53;;;19.80;46.10;;;;;;5043272;28;20479;-71
2024/01/08 06:51:55;;;;;;;12.87;12.17;;;19.80;46.10;;;;;;5043118;28;20482;-71
2024/01/08 06:54:22;;;;;;;12.93;12.23;;;19.80;46.00;;;;;;5040301;28;20472;-70
2024/01/08 06:56:49;;;;;;;13.17;12.07;;;19.80;45.90;;;;;;5039796;28;20445;-72
2024/01/08 06:59:18;;;;;;;12.23;11.43;;;19.80;45.90;;;;;;5041749;28;20487;-71
2024/01/08 07:01:45;;;;;;;12.50;11.67;;;19.80;45.80;;;;;;5042932;28;21064;-72
2024/01/08 07:04:13;;;;;;;14.03;12.90;;;19.80;45.80;;;;;;5041636;28;20472;-72
2024/01/08 07:06:40;;;;;;;11.77;10.80;;;19.80;45.70;;;;;;5039699;28;20452;-72
2024/01/08 07:09:07;;;;;;;11.53;11.00;;;19.80;45.60;;;;;;5040106;28;21059;-71
2024/01/08 07:11:34;;;;;;;10.60;10.20;;;19.80;45.60;;;;;;5042820;28;20456;-71
2024/01/08 07:14:01;;;;;;;12.17;11.60;;;19.80;45.50;;;;;;5043055;28;20464;-71
2024/01/08 07:16:29;;;;;;;12.27;11.53;;;19.80;45.50;;;;;;5039679;28;20846;-71
2024/01/08 07:18:56;;;;;;;13.13;12.23;;;19.80;45.50;;;;;;5039631;28;20481;-71
2024/01/08 07:21:23;;;;;;;10.67;10.27;;;19.80;45.40;;;;;;5041873;28;20488;-71
2024/01/08 07:23:50;;;;;;;11.73;10.83;;;19.80;45.30;;;;;;5042979;28;20873;-71
2024/01/08 07:26:17;;;;;;;11.60;11.10;;;19.90;45.40;;;;;;5040970;28;20446;-71
2024/01/08 07:28:45;;;;;;;13.40;12.50;;;19.90;45.30;;;;;;5039464;28;20481;-71
2024/01/08 07:31:12;;;;;;;13.07;12.20;;;19.90;45.30;;;;;;5040159;28;20523;-71
2024/01/08 07:33:41;;;;;;;11.03;10.47;;;19.90;45.20;;;;;;5042913;28;20455;-70
2024/01/08 07:36:08;;;;;;;11.13;10.43;;;19.90;45.20;;;;;;5042113;28;20867;-71
2024/01/08 07:38:36;;;;;;;12.73;12.10;;;19.90;45.10;;;;;;5039333;28;20473;-70
2024/01/08 07:41:03;;;;;;;11.00;10.50;;;19.90;45.10;;;;;;5039253;28;20504;-70
2024/01/08 07:43:30;;;;;;;12.10;11.60;;;19.90;45.10;;;;;;5031360;28;20481;-71
2024/01/08 07:45:57;;;;;;;12.30;11.60;;;19.90;45.00;;;;;;5039351;28;20508;-71
2024/01/08 07:48:24;;;;;;;11.93;11.37;;;19.90;45.00;;;;;;5041963;28;20483;-71
2024/01/08 07:50:52;;;;;;;11.53;11.13;;;19.90;45.00;;;;;;5042333;28;20468;-71
2024/01/08 07:53:19;;;;;;;11.67;11.10;;;19.90;45.50;;;;;;5040692;28;20467;-71
2024/01/08 07:55:46;;;;;;;12.17;11.57;;;19.90;44.90;;;;;;5039223;28;20473;-71
2024/01/08 07:58:14;;;;;;;11.33;10.63;;;19.90;44.90;;;;;;5040331;28;20484;-71
2024/01/08 08:00:41;;;;;;;11.33;10.80;;;19.90;44.90;;;;;;5042527;28;20480;-71
2024/01/08 08:03:08;;;;;;;12.70;11.80;;;19.90;44.80;;;;;;5042010;28;20490;-71
2024/01/08 08:05:35;;;;;;;13.17;12.00;;;19.90;44.80;;;;;;5039279;28;20469;-72
2024/01/08 08:08:04;;;;;;;11.40;10.90;;;20.00;44.90;;;;;;5039124;28;20483;-71
2024/01/08 08:10:31;;;;;;;12.57;12.07;;;19.90;44.70;;;;;;5031092;28;20750;-71
2024/01/08 08:12:58;;;;;;;11.00;10.60;;;20.00;44.80;;;;;;5039022;28;20548;-71
2024/01/08 08:15:25;;;;;;;11.20;10.80;;;20.00;44.80;;;;;;5041584;28;20472;-72
2024/01/08 08:17:52;;;;;;;11.63;11.13;;;19.90;44.70;;;;;;5042341;28;20448;-71
2024/01/08 08:20:19;;;;;;;12.33;11.53;;;20.00;44.70;;;;;;5040538;28;20467;-72
2024/01/08 08:22:46;;;;;;;12.27;11.67;;;19.90;44.60;;;;;;5039009;28;20516;-71
2024/01/08 08:25:14;;;;;;;11.70;11.20;;;20.00;44.60;;;;;;5042996;28;20484;-73
2024/01/08 08:27:41;;;;;;;11.53;11.00;;;20.00;44.60;;;;;;5046106;28;20444;-71
2024/01/08 08:30:11;;;;;;;11.83;11.33;;;19.90;44.50;;;;;;5045451;28;20949;-70
2024/01/08 08:32:39;;;;;;;11.90;11.50;;;20.00;44.60;;;;;;5042449;28;20475;-71
2024/01/08 08:35:08;;;;;;;12.00;11.50;;;20.00;44.50;;;;;;5042472;28;20445;-70
2024/01/08 08:37:36;;;;;;;12.20;11.80;;;20.00;44.50;;;;;;5034613;28;20506;-71
2024/01/08 08:40:03;;;;;;;12.03;11.53;;;20.00;44.50;;;;;;5042270;28;20492;-71
2024/01/08 08:42:31;;;;;;;11.63;11.33;;;20.00;44.40;;;;;;5045282;28;21252;-71
2024/01/08 08:44:58;;;;;;;10.97;10.57;;;20.00;44.50;;;;;;5045748;28;20479;-70
2024/01/08 08:47:25;;;;;;;11.73;11.10;;;20.00;44.40;;;;;;5042869;28;20943;-71
2024/01/08 08:49:52;;;;;;;12.27;11.87;;;20.00;44.40;;;;;;5041951;28;21006;-71
2024/01/08 08:52:19;;;;;;;11.83;11.43;;;20.00;44.30;;;;;;5043672;28;20535;-71
2024/01/08 08:54:46;;;;;;;12.00;11.50;;;20.00;44.30;;;;;;5045563;28;20770;-71
2024/01/08 08:57:13;;;;;;;11.80;11.23;;;20.00;44.30;;;;;;5044435;28;20481;-71
2024/01/08 08:59:41;;;;;;;11.27;10.97;;;20.00;44.30;;;;;;5041910;28;20492;-71
2024/01/08 09:02:08;;;;;;;11.23;10.87;;;20.00;44.30;;;;;;5041722;28;20534;-71
2024/01/08 09:04:35;;;;;;;11.40;11.00;;;20.00;44.30;;;;;;5045265;28;20472;-71
2024/01/08 09:07:02;;;;;;;10.87;10.47;;;20.00;44.30;;;;;;5045298;28;20476;-71
2024/01/08 09:09:29;;;;;;;10.87;10.57;;;20.00;44.30;;;;;;5042033;28;20520;-71
2024/01/08 09:11:56;;;;;;;11.37;10.90;;;20.00;44.30;;;;;;5041627;28;20477;-71
2024/01/08 09:14:23;;;;;;;10.77;10.47;;;20.00;44.20;;;;;;5043565;28;20872;-70
2024/01/08 09:16:51;;;;;;;11.60;11.30;;;20.00;44.20;;;;;;5044937;28;20495;-71
2024/01/08 09:19:18;;;;;;;11.10;10.80;;;20.00;44.20;;;;;;5043444;28;20472;-71
2024/01/08 09:21:47;;;;;;;10.60;10.30;;;20.00;44.20;;;;;;5041472;28;20512;-71
2024/01/08 09:24:14;;;;;;;11.50;11.20;;;20.00;44.20;;;;;;5042308;28;20807;-71
2024/01/08 09:26:42;;;;;;;10.53;10.20;;;20.10;44.20;;;;;;5044830;28;20477;-71
2024/01/08 09:29:09;;;;;;;10.97;10.67;;;20.00;44.10;;;;;;5044655;28;20942;-71
2024/01/08 09:31:36;;;;;;;11.87;11.47;;;20.00;44.10;;;;;;5041299;28;20548;-71
2024/01/08 09:34:05;;;;;;;11.77;11.37;;;20.10;44.20;;;;;;5041300;28;20510;-70
2024/01/08 09:36:32;;;;;;;11.63;11.33;;;20.10;44.10;;;;;;5043238;28;20448;-71
2024/01/08 09:38:59;;;;;;;11.73;11.37;;;20.10;44.20;;;;;;5044728;28;20862;-71
2024/01/08 09:41:26;;;;;;;11.90;11.47;;;20.10;44.10;;;;;;5042011;28;20472;-71
2024/01/08 09:43:53;;;;;;;12.07;11.67;;;20.00;44.00;;;;;;5041044;28;20574;-72
2024/01/08 09:46:26;;;;;;;11.80;11.30;;;20.10;44.10;;;;;;5042472;28;20484;-71
2024/01/08 09:48:54;;;;;;;12.23;11.70;;;20.00;44.00;;;;;;5044439;28;20479;-70
2024/01/08 09:51:23;;;;;;;11.70;11.40;;;20.10;44.10;;;;;;5042501;28;20468;-70
2024/01/08 09:53:52;;;;;;;11.13;10.80;;;20.00;44.00;;;;;;5040960;28;20444;-71
2024/01/08 09:56:22;;;;;;;12.27;11.80;;;20.10;44.10;;;;;;5042224;28;20821;-71
2024/01/08 09:58:49;;;;;;;12.30;11.80;;;20.00;43.90;;;;;;5044317;28;20444;-71
2024/01/08 10:01:16;;;;;;;12.30;11.80;;;20.10;44.00;;;;;;5043085;28;20889;-71
2024/01/08 10:03:44;;;;;;;11.50;11.20;;;20.10;44.00;;;;;;5040693;28;20485;-72
2024/01/08 10:06:11;;;;;;;11.80;11.30;;;20.10;43.90;;;;;;5040787;28;20441;-71
2024/01/08 10:08:39;;;;;;;11.93;11.53;;;20.10;43.90;;;;;;5044067;28;20971;-71
2024/01/08 10:11:07;;;;;;;11.90;11.47;;;20.10;43.90;;;;;;5044054;28;20500;-71
2024/01/08 10:13:35;;;;;;;11.87;11.50;;;20.10;43.90;;;;;;5040590;28;20516;-72
2024/01/08 10:16:02;;;;;;;11.87;11.47;;;20.10;43.80;;;;;;5040420;28;20472;-71
2024/01/08 10:18:30;;;;;;;12.33;11.83;;;20.10;43.90;;;;;;5043092;28;20531;-71
2024/01/08 10:21:10;;;;;;;11.10;10.70;;;20.10;43.80;;;;;;5043747;28;20484;-71
2024/01/08 10:23:37;;;;;;;11.37;11.07;;;20.10;43.80;;;;;;5032244;28;20486;-71
2024/01/08 10:26:06;;;;;;;11.90;11.50;;;20.10;43.80;;;;;;5040407;28;20491;-72
2024/01/08 10:28:39;;;;;;;12.13;11.67;;;20.10;43.80;;;;;;5043013;28;20448;-72
2024/01/08 10:31:07;;;;;;;11.57;11.23;;;20.10;43.80;;;;;;5043379;28;20510;-72
2024/01/08 10:33:34;;;;;;;11.50;11.20;;;20.10;43.80;;;;;;5040448;28;20507;-71
2024/01/08 10:36:03;;;;;;;11.87;11.50;;;20.10;43.70;;;;;;5040414;28;20480;-71
2024/01/08 10:38:32;;;;;;;11.80;11.50;;;20.10;43.70;;;;;;5042772;28;20863;-70
2024/01/08 10:41:00;;;;;;;12.10;11.80;;;20.10;43.70;;;;;;5043368;28;20467;-71
2024/01/08 10:43:29;;;;;;;11.40;11.10;;;20.10;43.70;;;;;;5041144;28;20518;-71
2024/01/08 10:45:59;;;;;;;10.70;10.40;;;20.10;43.70;;;;;;5039850;28;20528;-71
2024/01/08 10:48:37;;;;;;;11.73;11.43;;;20.10;43.60;;;;;;5041771;28;20441;-72
2024/01/08 10:51:07;;;;;;;11.30;11.00;;;20.10;43.60;;;;;;5043246;28;20495;-71
2024/01/08 10:53:41;;;;;;;11.53;11.13;;;20.10;43.60;;;;;;5040172;28;20476;-72
2024/01/08 10:56:12;;;;;;;11.80;11.40;;;20.10;43.50;;;;;;5039975;28;20441;-72
2024/01/08 10:58:49;;;;;;;11.40;11.10;;;20.10;43.50;;;;;;5031973;28;20472;-71
2024/01/08 11:01:17;;;;;;;11.20;10.90;;;20.10;43.50;;;;;;5040085;28;20479;-71
2024/01/08 11:03:44;;;;;;;11.30;11.00;;;20.10;43.50;;;;;;5043114;28;20511;-71
2024/01/08 11:06:12;;;;;;;12.30;11.90;;;20.20;43.60;;;;;;5043217;28;20874;-71
2024/01/08 11:08:40;;;;;;;12.07;11.73;;;20.20;43.50;;;;;;5031709;28;20473;-71
2024/01/08 11:11:09;;;;;;;12.00;11.63;;;20.10;43.40;;;;;;5039480;28;20481;-71
2024/01/08 11:13:36;;;;;;;11.97;11.67;;;20.10;43.40;;;;;;5042664;28;20436;-72
2024/01/08 11:16:07;;;;;;;12.27;11.87;;;20.10;43.30;;;;;;5036234;28;20468;-70
2024/01/08 11:18:34;;;;;;;12.40;12.10;;;20.20;43.40;;;;;;5042407;28;20464;-71
2024/01/08 11:21:01;;;;;;;12.10;11.80;;;20.20;43.30;;;;;;5042804;28;20460;-71
2024/01/08 11:23:32;;;;;;;11.40;11.10;;;20.20;43.30;;;;;;5040740;28;21049;-71
2024/01/08 11:26:01;;;;;;;11.97;11.60;;;20.20;43.30;;;;;;5039564;28;20445;-71
2024/01/08 11:28:28;;;;;;;12.20;11.80;;;20.20;43.30;;;;;;5041424;28;20452;-71
2024/01/08 11:31:27;;;;;;;11.90;11.50;;;20.20;43.20;;;;;;5042691;28;20555;-70
2024/01/08 11:34:20;;;;;;;12.17;11.77;;;20.20;43.20;;;;;;5033479;28;20472;-71
2024/01/08 11:36:48;;;;;;;12.30;11.90;;;20.20;43.70;;;;;;5032388;28;20531;-71
2024/01/08 11:39:17;;;;;;;12.50;12.10;;;20.20;43.10;;;;;;5039439;28;20499;-71
2024/01/08 11:41:45;;;;;;;12.53;12.13;;;20.20;43.10;;;;;;5043171;28;20492;-71
2024/01/08 11:44:14;;;;;;;12.00;11.60;;;20.10;43.00;;;;;;5043267;28;20476;-71
2024/01/08 11:46:42;;;;;;;12.00;11.70;;;20.20;43.10;;;;;;5031963;28;20452;-71
2024/01/08 11:49:10;;;;;;;11.40;11.10;;;20.20;43.10;;;;;;5039577;28;20529;-71
2024/01/08 11:51:41;;;;;;;12.43;11.93;;;20.20;43.10;;;;;;5082514;22;20530;-65
2024/01/08 11:54:14;;;;;;;11.40;11.10;;;20.20;43.10;;;;;;5059272;28;20470;-65
2024/01/08 11:56:42;;;;;;;11.50;11.00;;;20.20;43.00;;;;;;5051191;28;20464;-65
2024/01/08 11:59:09;;;;;;;11.73;11.43;;;20.20;43.00;;;;;;5060739;28;20499;-65
2024/01/08 12:01:36;;;;;;;11.73;11.43;;;20.20;43.00;;;;;;5065752;28;20448;-65
2024/01/08 12:04:05;;;;;;;12.10;11.70;;;20.20;42.90;;;;;;5066263;28;20470;-65
2024/01/08 12:06:32;;;;;;;12.37;11.87;;;20.20;42.90;;;;;;5063934;28;20512;-65
2024/01/08 12:08:59;;;;;;;11.13;10.83;;;20.30;43.00;;;;;;5062903;28;20521;-67
2024/01/08 12:11:26;;;;;;;11.37;11.07;;;20.30;43.00;;;;;;5063987;28;20460;-67
2024/01/08 12:13:54;;;;;;;10.37;10.13;;;20.30;42.90;;;;;;5066303;28;20443;-66
2024/01/08 12:16:21;;;;;;;10.47;10.17;;;20.30;42.90;;;;;;5065296;28;20439;-66
2024/01/08 12:18:48;;;;;;;11.03;10.67;;;20.30;42.90;;;;;;5062749;28;20471;-66
2024/01/08 12:21:16;;;;;;;11.17;10.87;;;20.30;42.80;;;;;;5062427;28;20491;-66
2024/01/08 12:23:43;;;;;;;10.57;10.13;;;20.30;42.80;;;;;;5054682;28;20476;-66
2024/01/08 12:26:11;;;;;;;11.53;11.13;;;20.30;42.80;;;;;;5062460;28;20476;-66
2024/01/08 12:28:37;;;;;;;11.50;11.10;;;20.30;43.30;;;;;;5065316;28;20478;-66
2024/01/08 12:31:06;;;;;;;11.17;10.87;;;20.30;42.70;;;;;;5065716;28;20490;-66
2024/01/08 12:33:33;;;;;;;11.50;11.10;;;20.30;42.70;;;;;;5063404;28;20472;-66
2024/01/08 12:36:01;;;;;;;11.17;10.87;;;20.30;42.70;;;;;;5062409;28;20444;-66
2024/01/08 12:38:31;;;;;;;10.77;10.47;;;20.30;42.70;;;;;;5064054;28;20444;-66